sensor_id;sensor_type;location;lat;lon;timestamp;noise_LAeq;noise_LA_min;noise_LA_max;noise_LA01;noise_LA95
45651;Laerm;31365;48.858;8.530;2023-02-28T00:01:58;39.47;34.31;49.03;;
45651;Laerm;31365;48.858;8.530;2023-02-28T00:04:29;40.90;33.90;44.62;;
45651;Laerm;31365;48.858;8.530;2023-02-28T00:06:58;43.98;34.31;66.53;;
45651;Laerm;31365;48.858;8.530;2023-02-28T00:09:26;39.10;32.35;50.99;;
45651;Laerm;31365;48.858;8.530;2023-02-28T00:11:55;38.61;32.35;42.53;;
45651;Laerm;31365;48.858;8.530;2023-02-28T00:14:24;39.14;32.35;41.82;;
45651;Laerm;31365;48.858;8.530;2023-02-28T00:16:52;40.42;33.44;49.26;;
45651;Laerm;31365;48.858;8.530;2023-02-28T00:19:22;50.57;34.69;67.04;;
45651;Laerm;31365;48.858;8.530;2023-02-28T00:21:52;39.04;32.93;41.96;;
45651;Laerm;31365;48.858;8.530;2023-02-28T00:24:20;38.78;31.68;42.03;;
45651;Laerm;31365;48.858;8.530;2023-02-28T00:29:18;53.84;33.90;77.02;;
45651;Laerm;31365;48.858;8.530;2023-02-28T00:31:47;38.91;31.68;48.95;;
45651;Laerm;31365;48.858;8.530;2023-02-28T00:34:15;53.41;33.90;73.70;;
45651;Laerm;31365;48.858;8.530;2023-02-28T00:36:44;38.58;32.93;41.22;;
45651;Laerm;31365;48.858;8.530;2023-02-28T00:39:18;54.71;33.90;74.65;;
45651;Laerm;31365;48.858;8.530;2023-02-28T00:41:48;54.16;30.89;75.90;;
45651;Laerm;31365;48.858;8.530;2023-02-28T00:44:16;38.25;30.89;40.98;;
45651;Laerm;31365;48.858;8.530;2023-02-28T00:46:46;39.13;32.93;46.40;;
45651;Laerm;31365;48.858;8.530;2023-02-28T00:49:14;56.52;33.90;75.45;;
45651;Laerm;31365;48.858;8.530;2023-02-28T00:51:42;38.91;32.35;41.82;;
45651;Laerm;31365;48.858;8.530;2023-02-28T00:54:12;38.72;30.89;41.22;;
45651;Laerm;31365;48.858;8.530;2023-02-28T00:56:42;38.63;32.35;43.99;;
45651;Laerm;31365;48.858;8.530;2023-02-28T00:59:12;38.64;32.35;42.22;;
45651;Laerm;31365;48.858;8.530;2023-02-28T01:01:42;38.69;32.35;45.78;;
45651;Laerm;31365;48.858;8.530;2023-02-28T01:04:12;38.53;30.89;41.61;;
45651;Laerm;31365;48.858;8.530;2023-02-28T01:06:42;53.71;31.68;75.22;;
45651;Laerm;31365;48.858;8.530;2023-02-28T01:09:12;38.56;33.44;49.50;;
45651;Laerm;31365;48.858;8.530;2023-02-28T01:11:43;38.53;31.68;41.46;;
45651;Laerm;31365;48.858;8.530;2023-02-28T01:14:14;38.47;32.35;47.18;;
45651;Laerm;31365;48.858;8.530;2023-02-28T01:16:45;38.47;32.93;43.39;;
45651;Laerm;31365;48.858;8.530;2023-02-28T01:19:13;38.20;31.68;41.14;;
45651;Laerm;31365;48.858;8.530;2023-02-28T01:21:42;38.73;30.89;41.61;;
45651;Laerm;31365;48.858;8.530;2023-02-28T01:24:12;38.91;32.93;42.65;;
45651;Laerm;31365;48.858;8.530;2023-02-28T01:26:42;39.20;33.44;50.85;;
45651;Laerm;31365;48.858;8.530;2023-02-28T01:29:10;39.25;32.93;43.99;;
45651;Laerm;31365;48.858;8.530;2023-02-28T01:31:39;57.36;32.35;80.10;;
45651;Laerm;31365;48.858;8.530;2023-02-28T01:34:09;38.82;31.68;41.82;;
45651;Laerm;31365;48.858;8.530;2023-02-28T01:36:37;38.65;32.35;41.61;;
45651;Laerm;31365;48.858;8.530;2023-02-28T01:39:06;38.63;32.35;54.93;;
45651;Laerm;31365;48.858;8.530;2023-02-28T01:41:34;52.47;31.33;72.64;;
45651;Laerm;31365;48.858;8.530;2023-02-28T01:44:53;54.42;33.90;71.34;;
45651;Laerm;31365;48.858;8.530;2023-02-28T01:46:55;38.57;31.68;43.04;;
45651;Laerm;31365;48.858;8.530;2023-02-28T01:49:24;38.41;31.68;41.06;;
45651;Laerm;31365;48.858;8.530;2023-02-28T01:51:57;38.56;33.90;41.61;;
45651;Laerm;31365;48.858;8.530;2023-02-28T01:54:30;38.49;30.89;40.89;;
45651;Laerm;31365;48.858;8.530;2023-02-28T01:57:06;38.71;31.33;41.75;;
45651;Laerm;31365;48.858;8.530;2023-02-28T01:59:43;54.65;33.44;76.52;;
45651;Laerm;31365;48.858;8.530;2023-02-28T02:02:22;51.07;33.44;70.35;;
45651;Laerm;31365;48.858;8.530;2023-02-28T02:04:55;40.00;32.93;53.10;;
45651;Laerm;31365;48.858;8.530;2023-02-28T02:07:26;38.42;26.91;41.75;;
45651;Laerm;31365;48.858;8.530;2023-02-28T02:10:02;38.34;32.35;41.30;;
45651;Laerm;31365;48.858;8.530;2023-02-28T02:16:04;38.88;33.44;42.09;;
45651;Laerm;31365;48.858;8.530;2023-02-28T02:18:46;39.12;32.93;44.69;;
45651;Laerm;31365;48.858;8.530;2023-02-28T02:24:48;39.18;31.68;43.58;;
45651;Laerm;31365;48.858;8.530;2023-02-28T02:27:37;52.97;32.93;73.94;;
45651;Laerm;31365;48.858;8.530;2023-02-28T02:30:44;39.08;30.89;55.38;;
45651;Laerm;31365;48.858;8.530;2023-02-28T02:36:36;40.29;34.69;46.18;;
45651;Laerm;31365;48.858;8.530;2023-02-28T02:39:16;38.71;32.93;41.30;;
45651;Laerm;31365;48.858;8.530;2023-02-28T02:41:51;38.83;32.93;41.82;;
45651;Laerm;31365;48.858;8.530;2023-02-28T02:44:24;39.22;33.90;43.19;;
45651;Laerm;31365;48.858;8.530;2023-02-28T02:47:03;40.40;32.93;62.85;;
45651;Laerm;31365;48.858;8.530;2023-02-28T02:49:37;41.77;35.04;55.45;;
45651;Laerm;31365;48.858;8.530;2023-02-28T02:52:12;62.88;34.31;80.19;;
45651;Laerm;31365;48.858;8.530;2023-02-28T02:54:46;49.87;32.93;69.73;;
45651;Laerm;31365;48.858;8.530;2023-02-28T02:57:26;51.49;35.04;72.97;;
45651;Laerm;31365;48.858;8.530;2023-02-28T03:00:00;39.63;33.90;43.54;;
45651;Laerm;31365;48.858;8.530;2023-02-28T03:02:31;39.68;33.90;43.49;;
45651;Laerm;31365;48.858;8.530;2023-02-28T03:05:09;62.52;37.12;83.26;;
45651;Laerm;31365;48.858;8.530;2023-02-28T03:07:44;40.33;34.69;44.35;;
45651;Laerm;31365;48.858;8.530;2023-02-28T03:10:33;54.76;34.69;73.18;;
45651;Laerm;31365;48.858;8.530;2023-02-28T03:16:49;39.87;33.90;52.02;;
45651;Laerm;31365;48.858;8.530;2023-02-28T03:19:37;39.48;34.69;43.24;;
45651;Laerm;31365;48.858;8.530;2023-02-28T03:22:28;62.83;35.36;81.99;;
45651;Laerm;31365;48.858;8.530;2023-02-28T03:25:08;54.62;35.94;80.54;;
45651;Laerm;31365;48.858;8.530;2023-02-28T03:27:49;55.19;34.69;76.86;;
45651;Laerm;31365;48.858;8.530;2023-02-28T03:30:27;58.85;35.94;78.85;;
45651;Laerm;31365;48.858;8.530;2023-02-28T03:33:05;39.95;35.04;42.65;;
45651;Laerm;31365;48.858;8.530;2023-02-28T03:35:39;54.03;35.04;72.65;;
45651;Laerm;31365;48.858;8.530;2023-02-28T03:38:14;39.73;35.04;42.93;;
45651;Laerm;31365;48.858;8.530;2023-02-28T03:40:50;55.35;37.12;76.41;;
45651;Laerm;31365;48.858;8.530;2023-02-28T03:43:26;57.15;35.94;77.79;;
45651;Laerm;31365;48.858;8.530;2023-02-28T03:45:58;41.16;34.31;54.27;;
45651;Laerm;31365;48.858;8.530;2023-02-28T03:48:36;52.67;35.94;70.36;;
45651;Laerm;31365;48.858;8.530;2023-02-28T03:51:11;40.02;35.04;43.34;;
45651;Laerm;31365;48.858;8.530;2023-02-28T03:53:47;51.98;35.36;71.66;;
45651;Laerm;31365;48.858;8.530;2023-02-28T03:56:26;56.04;35.36;77.74;;
45651;Laerm;31365;48.858;8.530;2023-02-28T03:59:02;40.10;36.45;42.82;;
45651;Laerm;31365;48.858;8.530;2023-02-28T04:01:38;40.12;34.69;43.04;;
45651;Laerm;31365;48.858;8.530;2023-02-28T04:04:09;48.04;35.66;64.69;;
45651;Laerm;31365;48.858;8.530;2023-02-28T04:06:40;57.79;35.94;77.10;;
45651;Laerm;31365;48.858;8.530;2023-02-28T04:09:13;59.84;36.20;78.21;;
45651;Laerm;31365;48.858;8.530;2023-02-28T04:11:45;61.51;38.05;80.81;;
45651;Laerm;31365;48.858;8.530;2023-02-28T04:14:16;61.29;35.94;82.33;;
45651;Laerm;31365;48.858;8.530;2023-02-28T04:16:46;58.96;37.88;77.12;;
45651;Laerm;31365;48.858;8.530;2023-02-28T04:19:14;42.13;38.32;48.48;;
45651;Laerm;31365;48.858;8.530;2023-02-28T04:21:45;62.25;36.69;78.89;;
45651;Laerm;31365;48.858;8.530;2023-02-28T04:24:16;58.19;37.32;74.09;;
45651;Laerm;31365;48.858;8.530;2023-02-28T04:26:50;57.48;36.91;77.94;;
45651;Laerm;31365;48.858;8.530;2023-02-28T04:29:25;58.39;36.69;78.09;;
45651;Laerm;31365;48.858;8.530;2023-02-28T04:31:55;63.30;39.08;81.87;;
45651;Laerm;31365;48.858;8.530;2023-02-28T04:34:26;57.03;37.70;75.37;;
45651;Laerm;31365;48.858;8.530;2023-02-28T04:36:55;60.56;37.32;78.81;;
45651;Laerm;31365;48.858;8.530;2023-02-28T04:39:41;61.74;38.52;77.99;;
45651;Laerm;31365;48.858;8.530;2023-02-28T04:42:12;61.38;37.32;76.69;;
45651;Laerm;31365;48.858;8.530;2023-02-28T04:44:41;59.99;37.32;75.04;;
45651;Laerm;31365;48.858;8.530;2023-02-28T04:47:10;60.88;39.92;78.08;;
45651;Laerm;31365;48.858;8.530;2023-02-28T04:49:39;63.62;40.80;79.78;;
45651;Laerm;31365;48.858;8.530;2023-02-28T04:52:08;62.56;39.70;77.71;;
45651;Laerm;31365;48.858;8.530;2023-02-28T04:54:38;63.96;41.61;80.58;;
45651;Laerm;31365;48.858;8.530;2023-02-28T04:57:06;61.61;39.81;80.79;;
45651;Laerm;31365;48.858;8.530;2023-02-28T04:59:40;62.18;38.81;79.72;;
45651;Laerm;31365;48.858;8.530;2023-02-28T05:02:08;61.81;39.21;80.70;;
45651;Laerm;31365;48.858;8.530;2023-02-28T05:04:37;66.03;41.22;83.36;;
45651;Laerm;31365;48.858;8.530;2023-02-28T05:07:06;60.63;38.21;79.11;;
45651;Laerm;31365;48.858;8.530;2023-02-28T05:09:34;62.67;38.37;79.06;;
45651;Laerm;31365;48.858;8.530;2023-02-28T05:12:03;63.09;38.95;79.10;;
45651;Laerm;31365;48.858;8.530;2023-02-28T05:14:31;61.13;38.67;77.98;;
45651;Laerm;31365;48.858;8.530;2023-02-28T05:17:02;64.26;38.52;81.85;;
45651;Laerm;31365;48.858;8.530;2023-02-28T05:19:30;64.35;38.81;80.99;;
45651;Laerm;31365;48.858;8.530;2023-02-28T05:22:00;63.12;41.06;79.04;;
45651;Laerm;31365;48.858;8.530;2023-02-28T05:24:29;59.45;38.67;76.75;;
45651;Laerm;31365;48.858;8.530;2023-02-28T05:26:59;64.47;38.67;79.30;;
45651;Laerm;31365;48.858;8.530;2023-02-28T05:29:28;63.56;42.16;79.97;;
45651;Laerm;31365;48.858;8.530;2023-02-28T05:31:57;67.80;42.53;88.06;;
45651;Laerm;31365;48.858;8.530;2023-02-28T05:34:28;64.12;41.22;79.39;;
45651;Laerm;31365;48.858;8.530;2023-02-28T05:36:58;62.85;39.70;76.55;;
45651;Laerm;31365;48.858;8.530;2023-02-28T05:39:26;64.06;40.23;79.92;;
45651;Laerm;31365;48.858;8.530;2023-02-28T05:41:55;64.61;42.47;79.37;;
45651;Laerm;31365;48.858;8.530;2023-02-28T05:44:24;62.66;41.30;77.52;;
45651;Laerm;31365;48.858;8.530;2023-02-28T05:46:52;63.88;41.96;78.45;;
45651;Laerm;31365;48.858;8.530;2023-02-28T05:49:22;61.35;39.81;74.44;;
45651;Laerm;31365;48.858;8.530;2023-02-28T05:51:51;63.12;41.53;76.79;;
45651;Laerm;31365;48.858;8.530;2023-02-28T05:54:20;67.74;42.93;85.39;;
45651;Laerm;31365;48.858;8.530;2023-02-28T05:56:48;63.62;41.68;76.92;;
45651;Laerm;31365;48.858;8.530;2023-02-28T05:59:17;66.43;43.24;83.24;;
45651;Laerm;31365;48.858;8.530;2023-02-28T06:01:47;62.94;41.75;81.88;;
45651;Laerm;31365;48.858;8.530;2023-02-28T06:04:18;64.52;39.58;80.37;;
45651;Laerm;31365;48.858;8.530;2023-02-28T06:06:59;63.18;38.81;77.50;;
45651;Laerm;31365;48.858;8.530;2023-02-28T06:09:29;65.48;42.53;80.25;;
45651;Laerm;31365;48.858;8.530;2023-02-28T06:11:59;64.74;42.88;79.05;;
45651;Laerm;31365;48.858;8.530;2023-02-28T06:14:28;65.07;44.07;79.26;;
45651;Laerm;31365;48.858;8.530;2023-02-28T06:16:59;65.38;42.65;78.99;;
45651;Laerm;31365;48.858;8.530;2023-02-28T06:19:27;67.09;44.90;81.28;;
45651;Laerm;31365;48.858;8.530;2023-02-28T06:21:59;65.30;44.31;80.01;;
45651;Laerm;31365;48.858;8.530;2023-02-28T06:24:27;64.40;41.06;77.91;;
45651;Laerm;31365;48.858;8.530;2023-02-28T06:26:57;67.83;44.43;82.60;;
45651;Laerm;31365;48.858;8.530;2023-02-28T06:29:32;65.01;42.03;87.28;;
45651;Laerm;31365;48.858;8.530;2023-02-28T06:32:01;67.24;43.24;83.89;;
45651;Laerm;31365;48.858;8.530;2023-02-28T06:34:29;66.73;41.61;83.68;;
45651;Laerm;31365;48.858;8.530;2023-02-28T06:37:00;65.00;43.24;79.11;;
45651;Laerm;31365;48.858;8.530;2023-02-28T06:39:29;68.12;44.90;84.72;;
45651;Laerm;31365;48.858;8.530;2023-02-28T06:41:58;65.86;46.15;79.04;;
45651;Laerm;31365;48.858;8.530;2023-02-28T06:44:26;66.09;40.98;84.20;;
45651;Laerm;31365;48.858;8.530;2023-02-28T06:47:04;66.94;44.73;79.56;;
45651;Laerm;31365;48.858;8.530;2023-02-28T06:49:36;65.24;39.81;85.10;;
45651;Laerm;31365;48.858;8.530;2023-02-28T06:52:07;64.31;40.89;76.54;;
45651;Laerm;31365;48.858;8.530;2023-02-28T06:54:37;65.35;43.77;81.17;;
45651;Laerm;31365;48.858;8.530;2023-02-28T06:57:05;66.90;45.45;79.91;;
45651;Laerm;31365;48.858;8.530;2023-02-28T06:59:35;67.51;43.19;83.46;;
45651;Laerm;31365;48.858;8.530;2023-02-28T07:02:03;66.00;45.01;79.11;;
45651;Laerm;31365;48.858;8.530;2023-02-28T07:04:33;65.21;43.39;78.43;;
45651;Laerm;31365;48.858;8.530;2023-02-28T07:07:02;67.85;42.53;89.79;;
45651;Laerm;31365;48.858;8.530;2023-02-28T07:09:32;64.03;44.65;77.72;;
45651;Laerm;31365;48.858;8.530;2023-02-28T07:12:01;65.45;43.44;78.89;;
45651;Laerm;31365;48.858;8.530;2023-02-28T07:14:30;63.45;40.71;80.58;;
45651;Laerm;31365;48.858;8.530;2023-02-28T07:16:59;62.52;41.30;75.82;;
45651;Laerm;31365;48.858;8.530;2023-02-28T07:19:27;62.81;41.53;77.19;;
45651;Laerm;31365;48.858;8.530;2023-02-28T07:21:56;65.05;41.82;83.02;;
45651;Laerm;31365;48.858;8.530;2023-02-28T07:24:24;67.22;44.15;82.97;;
45651;Laerm;31365;48.858;8.530;2023-02-28T07:26:58;63.69;42.22;77.04;;
45651;Laerm;31365;48.858;8.530;2023-02-28T07:29:28;65.40;40.80;79.61;;
45651;Laerm;31365;48.858;8.530;2023-02-28T07:31:57;62.74;41.82;78.07;;
45651;Laerm;31365;48.858;8.530;2023-02-28T07:34:26;63.81;41.53;80.46;;
45651;Laerm;31365;48.858;8.530;2023-02-28T07:36:54;62.25;39.70;75.49;;
45651;Laerm;31365;48.858;8.530;2023-02-28T07:39:23;62.49;39.92;75.76;;
45651;Laerm;31365;48.858;8.530;2023-02-28T07:41:51;61.09;38.37;75.64;;
45651;Laerm;31365;48.858;8.530;2023-02-28T07:44:26;64.55;42.65;78.68;;
45651;Laerm;31365;48.858;8.530;2023-02-28T07:46:55;65.24;41.53;79.53;;
45651;Laerm;31365;48.858;8.530;2023-02-28T07:49:23;59.96;39.92;76.81;;
45651;Laerm;31365;48.858;8.530;2023-02-28T07:51:51;65.52;42.93;78.80;;
45651;Laerm;31365;48.858;8.530;2023-02-28T07:54:20;61.51;41.22;79.34;;
45651;Laerm;31365;48.858;8.530;2023-02-28T07:56:49;65.13;39.46;80.65;;
45651;Laerm;31365;48.858;8.530;2023-02-28T07:59:17;66.55;46.55;78.93;;
45651;Laerm;31365;48.858;8.530;2023-02-28T08:01:47;62.07;42.71;77.86;;
45651;Laerm;31365;48.858;8.530;2023-02-28T08:04:17;63.16;47.84;78.83;;
45651;Laerm;31365;48.858;8.530;2023-02-28T08:06:47;63.72;49.04;82.36;;
45651;Laerm;31365;48.858;8.530;2023-02-28T08:09:19;66.40;49.49;82.29;;
45651;Laerm;31365;48.858;8.530;2023-02-28T08:11:48;65.30;49.46;79.99;;
45651;Laerm;31365;48.858;8.530;2023-02-28T08:14:17;63.53;50.41;77.57;;
45651;Laerm;31365;48.858;8.530;2023-02-28T08:16:47;63.51;47.57;78.35;;
45651;Laerm;31365;48.858;8.530;2023-02-28T08:19:15;63.13;48.57;79.54;;
45651;Laerm;31365;48.858;8.530;2023-02-28T08:21:44;63.03;48.73;74.71;;
45651;Laerm;31365;48.858;8.530;2023-02-28T08:24:13;63.27;47.83;78.22;;
45651;Laerm;31365;48.858;8.530;2023-02-28T08:26:41;65.39;49.85;79.46;;
45651;Laerm;31365;48.858;8.530;2023-02-28T08:29:10;63.46;48.13;77.97;;
45651;Laerm;31365;48.858;8.530;2023-02-28T08:31:39;62.73;46.10;78.97;;
45651;Laerm;31365;48.858;8.530;2023-02-28T08:34:15;62.39;47.36;77.63;;
45651;Laerm;31365;48.858;8.530;2023-02-28T08:36:46;62.17;46.71;74.75;;
45651;Laerm;31365;48.858;8.530;2023-02-28T08:39:14;63.64;49.38;77.31;;
45651;Laerm;31365;48.858;8.530;2023-02-28T08:41:43;65.96;49.04;84.53;;
45651;Laerm;31365;48.858;8.530;2023-02-28T08:44:15;70.76;46.33;100.61;;
45651;Laerm;31365;48.858;8.530;2023-02-28T08:46:43;64.00;46.57;78.78;;
45651;Laerm;31365;48.858;8.530;2023-02-28T08:49:14;67.65;47.91;81.47;;
45651;Laerm;31365;48.858;8.530;2023-02-28T08:51:44;66.59;62.13;72.92;;
45651;Laerm;31365;48.858;8.530;2023-02-28T08:54:13;62.97;39.34;75.23;;
45651;Laerm;31365;48.858;8.530;2023-02-28T08:56:43;58.20;38.95;73.75;;
45651;Laerm;31365;48.858;8.530;2023-02-28T08:59:11;62.18;40.62;75.62;;
45651;Laerm;31365;48.858;8.530;2023-02-28T09:01:40;60.21;39.58;76.75;;
45651;Laerm;31365;48.858;8.530;2023-02-28T09:04:11;63.52;39.58;80.16;;
45651;Laerm;31365;48.858;8.530;2023-02-28T09:06:47;64.90;41.30;79.12;;
45651;Laerm;31365;48.858;8.530;2023-02-28T09:09:16;62.28;40.13;75.80;;
45651;Laerm;31365;48.858;8.530;2023-02-28T09:11:44;64.17;41.61;79.81;;
45651;Laerm;31365;48.858;8.530;2023-02-28T09:14:13;62.32;39.58;77.38;;
45651;Laerm;31365;48.858;8.530;2023-02-28T09:16:46;64.26;41.22;77.75;;
45651;Laerm;31365;48.858;8.530;2023-02-28T09:19:15;60.82;39.46;77.37;;
45651;Laerm;31365;48.858;8.530;2023-02-28T09:21:52;64.59;41.30;78.91;;
45651;Laerm;31365;48.858;8.530;2023-02-28T09:24:21;66.26;44.47;82.66;;
45651;Laerm;31365;48.858;8.530;2023-02-28T09:26:49;63.48;36.91;79.27;;
45651;Laerm;31365;48.858;8.530;2023-02-28T09:29:31;62.74;38.52;77.82;;
45651;Laerm;31365;48.858;8.530;2023-02-28T09:32:01;62.98;39.78;79.99;;
45651;Laerm;31365;48.858;8.530;2023-02-28T09:34:33;62.63;39.08;78.67;;
45651;Laerm;31365;48.858;8.530;2023-02-28T09:37:07;68.61;42.29;86.99;;
45651;Laerm;31365;48.858;8.530;2023-02-28T09:39:35;63.73;39.70;79.58;;
45651;Laerm;31365;48.858;8.530;2023-02-28T09:42:05;60.71;40.08;77.81;;
45651;Laerm;31365;48.858;8.530;2023-02-28T09:44:38;62.97;38.81;75.55;;
45651;Laerm;31365;48.858;8.530;2023-02-28T09:47:18;61.63;41.75;76.80;;
45651;Laerm;31365;48.858;8.530;2023-02-28T09:52:30;64.42;42.82;81.57;;
45651;Laerm;31365;48.858;8.530;2023-02-28T09:55:21;65.46;41.68;84.47;;
45651;Laerm;31365;48.858;8.530;2023-02-28T09:57:54;63.55;41.68;79.72;;
45651;Laerm;31365;48.858;8.530;2023-02-28T10:00:33;64.45;39.70;80.37;;
45651;Laerm;31365;48.858;8.530;2023-02-28T10:03:25;63.17;43.14;77.74;;
45651;Laerm;31365;48.858;8.530;2023-02-28T10:06:03;60.86;41.06;75.70;;
45651;Laerm;31365;48.858;8.530;2023-02-28T10:11:15;62.05;40.80;75.26;;
45651;Laerm;31365;48.858;8.530;2023-02-28T10:13:54;65.60;44.19;82.61;;
45651;Laerm;31365;48.858;8.530;2023-02-28T10:16:35;63.90;42.71;77.45;;
45651;Laerm;31365;48.858;8.530;2023-02-28T10:19:13;62.51;41.82;74.12;;
45651;Laerm;31365;48.858;8.530;2023-02-28T10:21:50;62.68;38.95;80.30;;
45651;Laerm;31365;48.858;8.530;2023-02-28T10:24:32;63.64;39.08;78.81;;
45651;Laerm;31365;48.858;8.530;2023-02-28T10:27:14;63.34;41.82;78.92;;
45651;Laerm;31365;48.858;8.530;2023-02-28T10:29:49;65.75;39.08;83.90;;
45651;Laerm;31365;48.858;8.530;2023-02-28T10:32:23;64.38;41.96;79.20;;
45651;Laerm;31365;48.858;8.530;2023-02-28T10:35:00;62.48;39.70;76.61;;
45651;Laerm;31365;48.858;8.530;2023-02-28T10:37:30;63.76;39.70;81.97;;
45651;Laerm;31365;48.858;8.530;2023-02-28T10:40:01;66.39;40.71;91.06;;
45651;Laerm;31365;48.858;8.530;2023-02-28T10:42:35;62.03;38.37;74.25;;
45651;Laerm;31365;48.858;8.530;2023-02-28T10:45:12;62.00;38.52;77.23;;
45651;Laerm;31365;48.858;8.530;2023-02-28T10:47:52;65.64;39.34;84.53;;
45651;Laerm;31365;48.858;8.530;2023-02-28T10:50:30;61.99;41.06;74.58;;
45651;Laerm;31365;48.858;8.530;2023-02-28T10:53:24;60.97;40.53;74.07;;
45651;Laerm;31365;48.858;8.530;2023-02-28T10:56:17;61.94;38.81;78.89;;
45651;Laerm;31365;48.858;8.530;2023-02-28T10:58:53;59.81;38.37;75.44;;
45651;Laerm;31365;48.858;8.530;2023-02-28T11:01:34;65.84;52.75;79.35;;
45651;Laerm;31365;48.858;8.530;2023-02-28T11:04:19;62.75;40.03;79.07;;
45651;Laerm;31365;48.858;8.530;2023-02-28T11:06:58;65.71;42.65;79.74;;
45651;Laerm;31365;48.858;8.530;2023-02-28T11:09:32;63.16;40.89;77.85;;
45651;Laerm;31365;48.858;8.530;2023-02-28T11:12:07;65.15;42.09;83.95;;
45651;Laerm;31365;48.858;8.530;2023-02-28T11:14:50;62.60;41.06;78.42;;
45651;Laerm;31365;48.858;8.530;2023-02-28T11:17:22;64.78;42.76;80.18;;
45651;Laerm;31365;48.858;8.530;2023-02-28T11:19:57;61.36;39.34;79.52;;
45651;Laerm;31365;48.858;8.530;2023-02-28T11:22:37;62.46;40.43;78.01;;
45651;Laerm;31365;48.858;8.530;2023-02-28T11:25:21;60.83;38.05;78.05;;
45651;Laerm;31365;48.858;8.530;2023-02-28T11:27:57;66.83;41.89;88.03;;
45651;Laerm;31365;48.858;8.530;2023-02-28T11:30:37;64.81;39.58;80.59;;
45651;Laerm;31365;48.858;8.530;2023-02-28T11:33:26;61.20;38.81;75.23;;
45651;Laerm;31365;48.858;8.530;2023-02-28T11:36:01;63.56;42.09;78.31;;
45651;Laerm;31365;48.858;8.530;2023-02-28T11:38:34;62.89;42.09;77.79;;
45651;Laerm;31365;48.858;8.530;2023-02-28T11:41:40;63.28;39.70;79.72;;
45651;Laerm;31365;48.858;8.530;2023-02-28T11:44:43;60.38;38.81;76.98;;
45651;Laerm;31365;48.858;8.530;2023-02-28T11:47:29;65.70;42.71;83.44;;
45651;Laerm;31365;48.858;8.530;2023-02-28T11:50:23;75.57;43.09;95.65;;
45651;Laerm;31365;48.858;8.530;2023-02-28T11:52:59;65.00;37.52;79.83;;
45651;Laerm;31365;48.858;8.530;2023-02-28T11:55:36;65.13;40.62;88.80;;
45651;Laerm;31365;48.858;8.530;2023-02-28T11:58:34;62.13;40.80;77.03;;
45651;Laerm;31365;48.858;8.530;2023-02-28T12:01:38;61.85;40.13;78.18;;
45651;Laerm;31365;48.858;8.530;2023-02-28T12:04:24;62.87;41.89;77.58;;
45651;Laerm;31365;48.858;8.530;2023-02-28T12:07:07;59.30;39.34;75.33;;
45651;Laerm;31365;48.858;8.530;2023-02-28T12:09:50;60.76;39.34;77.41;;
45651;Laerm;31365;48.858;8.530;2023-02-28T12:12:37;63.47;41.53;76.64;;
45651;Laerm;31365;48.858;8.530;2023-02-28T12:15:52;64.87;42.41;78.15;;
45651;Laerm;31365;48.858;8.530;2023-02-28T12:18:53;60.10;39.21;75.82;;
45651;Laerm;31365;48.858;8.530;2023-02-28T12:21:40;65.69;42.59;91.58;;
45651;Laerm;31365;48.858;8.530;2023-02-28T12:24:31;65.03;39.46;82.16;;
45651;Laerm;31365;48.858;8.530;2023-02-28T12:27:11;63.20;43.14;79.50;;
45651;Laerm;31365;48.858;8.530;2023-02-28T12:29:50;60.59;38.95;76.97;;
45651;Laerm;31365;48.858;8.530;2023-02-28T12:32:27;61.29;38.67;77.71;;
45651;Laerm;31365;48.858;8.530;2023-02-28T12:35:06;62.82;40.23;80.38;;
45651;Laerm;31365;48.858;8.530;2023-02-28T12:37:41;63.91;39.21;78.33;;
45651;Laerm;31365;48.858;8.530;2023-02-28T12:40:19;64.31;40.71;80.43;;
45651;Laerm;31365;48.858;8.530;2023-02-28T12:42:54;63.44;39.08;80.77;;
45651;Laerm;31365;48.858;8.530;2023-02-28T12:45:38;62.93;41.82;78.65;;
45651;Laerm;31365;48.858;8.530;2023-02-28T12:48:13;62.31;42.82;75.13;;
45651;Laerm;31365;48.858;8.530;2023-02-28T12:50:47;62.21;39.70;76.02;;
45651;Laerm;31365;48.858;8.530;2023-02-28T12:53:27;64.83;40.62;79.54;;
45651;Laerm;31365;48.858;8.530;2023-02-28T12:56:14;62.00;37.88;82.73;;
45651;Laerm;31365;48.858;8.530;2023-02-28T12:58:50;59.31;39.58;72.70;;
45651;Laerm;31365;48.858;8.530;2023-02-28T13:02:24;60.66;41.30;78.05;;
45651;Laerm;31365;48.858;8.530;2023-02-28T13:05:36;61.88;40.33;78.69;;
45651;Laerm;31365;48.858;8.530;2023-02-28T13:41:46;63.36;36.20;80.78;;
45651;Laerm;31365;48.858;8.530;2023-02-28T13:44:19;61.33;39.92;75.75;;
45651;Laerm;31365;48.858;8.530;2023-02-28T13:47:24;62.99;39.08;76.57;;
45651;Laerm;31365;48.858;8.530;2023-02-28T13:50:18;67.72;41.89;93.89;;
45651;Laerm;31365;48.858;8.530;2023-02-28T13:53:12;66.57;35.66;84.59;;
45651;Laerm;31365;48.858;8.530;2023-02-28T13:55:54;63.62;40.80;80.57;;
45651;Laerm;31365;48.858;8.530;2023-02-28T13:58:46;60.96;40.98;74.54;;
45651;Laerm;31365;48.858;8.530;2023-02-28T14:01:44;66.64;39.46;92.19;;
45651;Laerm;31365;48.858;8.530;2023-02-28T14:05:01;61.45;41.14;75.78;;
45651;Laerm;31365;48.858;8.530;2023-02-28T14:07:38;59.56;39.81;73.24;;
45651;Laerm;31365;48.858;8.530;2023-02-28T14:10:39;62.58;36.69;84.09;;
45651;Laerm;31365;48.858;8.530;2023-02-28T14:13:54;59.69;37.52;75.71;;
45651;Laerm;31365;48.858;8.530;2023-02-28T14:16:25;63.16;39.46;80.15;;
45651;Laerm;31365;48.858;8.530;2023-02-28T14:19:00;61.18;39.81;77.97;;
45651;Laerm;31365;48.858;8.530;2023-02-28T14:24:48;62.21;40.71;78.63;;
45651;Laerm;31365;48.858;8.530;2023-02-28T14:27:37;66.40;40.53;86.20;;
45651;Laerm;31365;48.858;8.530;2023-02-28T14:30:42;65.13;39.23;87.22;;
45651;Laerm;31365;48.858;8.530;2023-02-28T14:33:24;64.68;43.49;78.44;;
45651;Laerm;31365;48.858;8.530;2023-02-28T14:36:27;64.11;41.22;78.25;;
45651;Laerm;31365;48.858;8.530;2023-02-28T14:39:14;63.26;39.92;79.26;;
45651;Laerm;31365;48.858;8.530;2023-02-28T14:42:30;67.07;41.22;84.13;;
45651;Laerm;31365;48.858;8.530;2023-02-28T14:45:17;64.23;42.88;76.96;;
45651;Laerm;31365;48.858;8.530;2023-02-28T14:47:51;63.60;42.53;80.45;;
45651;Laerm;31365;48.858;8.530;2023-02-28T14:50:24;66.11;42.98;83.06;;
45651;Laerm;31365;48.858;8.530;2023-02-28T14:52:55;64.39;40.33;77.10;;
45651;Laerm;31365;48.858;8.530;2023-02-28T14:55:31;65.19;42.22;82.18;;
45651;Laerm;31365;48.858;8.530;2023-02-28T14:58:02;64.53;45.91;79.10;;
45651;Laerm;31365;48.858;8.530;2023-02-28T15:00:35;64.99;44.27;77.48;;
45651;Laerm;31365;48.858;8.530;2023-02-28T15:03:22;62.97;41.75;76.49;;
45651;Laerm;31365;48.858;8.530;2023-02-28T15:05:53;67.49;42.16;84.10;;
45651;Laerm;31365;48.858;8.530;2023-02-28T15:08:23;62.28;40.53;76.60;;
45651;Laerm;31365;48.858;8.530;2023-02-28T15:10:56;66.78;45.98;81.57;;
45651;Laerm;31365;48.858;8.530;2023-02-28T15:13:35;67.14;43.76;80.57;;
45651;Laerm;31365;48.858;8.530;2023-02-28T15:16:10;64.60;40.98;77.94;;
45651;Laerm;31365;48.858;8.530;2023-02-28T15:18:49;65.25;41.14;81.81;;
45651;Laerm;31365;48.858;8.530;2023-02-28T15:21:24;66.07;43.49;81.85;;
45651;Laerm;31365;48.858;8.530;2023-02-28T15:23:58;65.60;43.58;85.10;;
45651;Laerm;31365;48.858;8.530;2023-02-28T15:26:33;64.41;42.41;78.28;;
45651;Laerm;31365;48.858;8.530;2023-02-28T15:29:07;62.86;39.81;74.13;;